Time;durP1;ratioP1;P1;durP2;ratioP2;P2;SDS_P1;SDS_P2;PMS_P1;PMS_P2;Temp;Humidity;BMP_temperature;BMP_pressure;BME280_temperature;BME280_humidity;BME280_pressure;Samples;Min_cycle;Max_cycle;Signal;HPM_P1;HPM_P2
2022/08/19 00:01:30;;;;;;;4.40;2.55;;;;;;;20.47;76.20;99946.45;1715271;83;20961;-69
2022/08/19 00:04:03;;;;;;;6.08;2.45;;;;;;;20.46;76.13;99953.77;1715737;83;21017;-69
2022/08/19 00:06:30;;;;;;;5.40;2.92;;;;;;;20.48;75.81;99954.86;1714371;81;20995;-70
2022/08/19 00:08:59;;;;;;;5.87;2.10;;;;;;;20.54;75.58;99952.44;1734847;81;21033;-69
2022/08/19 00:11:27;;;;;;;9.90;3.17;;;;;;;20.59;75.47;99951.12;1729633;81;21025;-69
2022/08/19 00:13:56;;;;;;;5.87;2.65;;;;;;;20.65;75.15;99954.69;1721969;81;21021;-69
2022/08/19 00:16:24;;;;;;;8.08;2.50;;;;;;;20.70;74.79;99955.53;1730945;83;21538;-68
2022/08/19 00:18:50;;;;;;;19.37;2.80;;;;;;;20.72;74.61;99957.43;1731795;81;21092;-68
2022/08/19 00:21:17;;;;;;;9.00;2.58;;;;;;;20.73;74.51;99955.53;1724625;83;21064;-69
2022/08/19 00:23:44;;;;;;;8.60;2.75;;;;;;;20.70;74.35;99955.53;1690918;83;21255;-73
2022/08/19 00:26:11;;;;;;;4.33;2.37;;;;;;;20.71;74.40;99961.20;1663960;84;21045;-68
2022/08/19 00:28:38;;;;;;;2.30;2.10;;;;;;;20.70;74.40;99956.88;1656038;84;21541;-69
2022/08/19 00:31:06;;;;;;;2.92;2.60;;;;;;;20.66;74.48;99955.76;1656358;84;21041;-69
2022/08/19 00:33:33;;;;;;;3.72;2.40;;;;;;;20.64;74.53;99954.41;1682555;81;20985;-69
2022/08/19 00:36:04;;;;;;;8.98;2.47;;;;;;;20.60;74.73;99950.86;1728727;82;21049;-67
2022/08/19 00:38:34;;;;;;;4.47;3.05;;;;;;;20.54;75.14;99946.48;1729244;82;21024;-69
2022/08/19 00:41:01;;;;;;;4.30;2.72;;;;;;;20.54;74.99;99952.44;1746146;82;21041;-68
2022/08/19 00:43:28;;;;;;;4.97;2.72;;;;;;;20.51;75.40;99951.61;1722684;82;20985;-68
2022/08/19 00:45:54;;;;;;;5.55;2.90;;;;;;;20.50;75.50;99949.99;1695056;83;21048;-69
2022/08/19 00:48:23;;;;;;;4.90;2.45;;;;;;;20.46;75.71;99955.66;1751735;82;21080;-70
2022/08/19 00:50:52;;;;;;;4.30;2.42;;;;;;;20.42;75.91;99954.82;1707353;83;21095;-68
2022/08/19 00:53:22;;;;;;;3.75;2.30;;;;;;;20.37;76.15;99954.79;1733792;82;21616;-69
2022/08/19 00:55:53;;;;;;;4.78;2.90;;;;;;;20.32;76.53;99955.30;1739106;81;21030;-68
2022/08/19 00:58:24;;;;;;;6.47;3.10;;;;;;;20.26;76.80;99962.58;1764128;81;21079;-69
2022/08/19 01:00:50;;;;;;;8.40;2.95;;;;;;;20.21;77.19;99965.23;1756275;81;21170;-68
2022/08/19 01:03:19;;;;;;;5.80;2.60;;;;;;;20.18;77.30;99973.90;1744293;81;21016;-69
2022/08/19 01:05:49;;;;;;;8.20;3.67;;;;;;;20.14;77.76;99974.15;1743347;81;20989;-69
2022/08/19 01:08:18;;;;;;;7.87;3.42;;;;;;;20.13;77.61;99975.21;1741822;81;20982;-69
2022/08/19 01:10:51;;;;;;;4.28;3.30;;;;;;;20.13;77.51;99976.56;1744196;82;21052;-69
2022/08/19 01:13:22;;;;;;;4.15;2.90;;;;;;;20.18;77.43;99977.95;1717067;82;21491;-70
2022/08/19 01:15:55;;;;;;;3.98;3.60;;;;;;;20.22;77.38;99981.22;1727884;82;21051;-69
2022/08/19 01:18:23;;;;;;;6.10;3.17;;;;;;;20.23;77.08;99978.80;1720100;82;21079;-69
2022/08/19 01:20:52;;;;;;;5.87;3.35;;;;;;;20.25;77.02;99975.01;1713089;82;20983;-68
2022/08/19 01:23:18;;;;;;;4.08;3.30;;;;;;;20.23;77.14;99969.34;1678313;83;21413;-68
2022/08/19 01:25:51;;;;;;;7.12;2.45;;;;;;;20.19;77.28;99978.22;1720625;82;21018;-68
2022/08/19 01:28:25;;;;;;;4.03;3.25;;;;;;;20.16;77.21;99980.11;1647960;85;21038;-71
2022/08/19 01:30:53;;;;;;;3.42;3.20;;;;;;;20.13;77.27;99977.38;1649479;85;21018;-69
2022/08/19 01:33:21;;;;;;;4.25;3.60;;;;;;;20.15;77.18;99977.12;1676080;83;21041;-69
2022/08/19 01:35:51;;;;;;;7.55;3.92;;;;;;;20.18;77.00;99963.08;1707190;84;21037;-69
2022/08/19 01:38:24;;;;;;;6.65;2.85;;;;;;;20.20;77.13;99969.03;1724459;82;21014;-69
2022/08/19 01:40:51;;;;;;;7.53;3.70;;;;;;;20.14;77.30;99964.13;1740043;81;21609;-67
2022/08/19 01:43:18;;;;;;;4.65;3.45;;;;;;;20.07;77.50;99962.19;1739742;82;21029;-68
2022/08/19 01:45:46;;;;;;;4.47;4.17;;;;;;;20.00;77.82;99962.43;1716964;82;20986;-69
2022/08/19 01:48:14;;;;;;;4.58;4.10;;;;;;;19.97;77.90;99959.42;1707954;83;21052;-68
2022/08/19 01:50:41;;;;;;;4.30;3.37;;;;;;;19.95;77.97;99954.27;1684590;84;21545;-69
2022/08/19 01:53:10;;;;;;;3.62;3.27;;;;;;;20.00;77.99;99948.06;1641001;86;21037;-68
2022/08/19 01:55:42;;;;;;;3.83;3.22;;;;;;;20.01;77.84;99948.36;1646808;86;21051;-72
2022/08/19 01:58:13;;;;;;;3.30;3.05;;;;;;;20.02;77.84;99941.85;1652739;85;20975;-68
2022/08/19 02:00:40;;;;;;;7.70;4.22;;;;;;;20.03;77.82;99948.36;1655255;84;21626;-69
2022/08/19 02:03:08;;;;;;;9.78;3.80;;;;;;;20.05;77.70;99947.30;1677408;85;21026;-69
2022/08/19 02:05:36;;;;;;;7.42;3.67;;;;;;;20.03;77.69;99949.72;1729775;82;21106;-69
2022/08/19 02:08:06;;;;;;;4.80;3.47;;;;;;;20.02;77.87;99954.87;1736430;82;21590;-69
2022/08/19 02:10:38;;;;;;;4.00;3.70;;;;;;;20.01;77.83;99959.17;1729157;82;20965;-69
2022/08/19 02:13:05;;;;;;;7.42;3.42;;;;;;;19.96;77.86;99954.53;1730754;82;21451;-70
2022/08/19 02:15:31;;;;;;;;;;;;;;;19.90;78.12;99959.63;1719735;82;21038;-68
2022/08/19 02:17:58;;;;;;;;;;;;;;;19.86;78.81;99962.58;1720878;83;20095;-68
2022/08/19 02:20:24;;;;;;;5.03;3.72;;;;;;;19.72;79.49;99958.64;1722713;82;20195;-69
2022/08/19 02:22:51;;;;;;;8.58;4.15;;;;;;;19.56;80.34;99957.17;1730535;82;21502;-69
2022/08/19 02:25:17;;;;;;;7.00;4.20;;;;;;;19.51;80.60;99955.77;1765188;81;21005;-68
2022/08/19 02:27:43;;;;;;;6.62;3.90;;;;;;;19.48;80.91;99954.11;1761899;80;21073;-69
2022/08/19 02:30:15;;;;;;;6.42;4.30;;;;;;;19.43;81.01;99955.70;1691058;83;21069;-69
2022/08/19 02:32:43;;;;;;;4.40;4.00;;;;;;;19.44;81.12;99961.94;1724879;82;21019;-69
2022/08/19 02:35:11;;;;;;;5.37;4.00;;;;;;;19.44;81.18;99956.53;1736186;82;21066;-68
2022/08/19 02:40:23;;;;;;;7.12;4.70;;;;;;;19.46;81.13;99969.25;1728911;81;21174;-68
2022/08/19 02:42:50;;;;;;;5.30;4.35;;;;;;;19.43;81.25;99971.91;1717765;82;21631;-67
2022/08/19 02:45:16;;;;;;;8.40;4.20;;;;;;;19.42;81.18;99977.56;1706019;82;20950;-69
2022/08/19 02:47:42;;;;;;;6.92;4.15;;;;;;;19.42;81.20;99972.16;1713547;83;21096;-69
2022/08/19 02:50:09;;;;;;;6.42;3.47;;;;;;;19.45;81.08;99970.31;1722487;82;21359;-67
2022/08/19 02:52:35;;;;;;;6.12;3.95;;;;;;;19.48;81.04;99963.56;1713738;82;21077;-68
2022/08/19 02:57:14;;;;;;;5.90;3.62;;;;;;;19.51;80.77;99958.47;1708934;79;22208;-68
2022/08/19 02:59:40;;;;;;;5.33;4.22;;;;;;;19.41;80.86;99967.84;1699381;83;21002;-68
2022/08/19 03:02:07;;;;;;;4.95;4.45;;;;;;;19.39;80.82;99967.29;1671705;83;21024;-70
2022/08/19 03:04:33;;;;;;;5.58;4.08;;;;;;;19.38;80.80;99965.13;1657887;84;21069;-68
2022/08/19 03:07:00;;;;;;;8.98;4.45;;;;;;;19.40;80.93;99960.28;1659311;84;22121;-69
2022/08/19 03:09:26;;;;;;;10.45;4.55;;;;;;;19.47;80.71;99958.70;1664261;84;21529;-69
2022/08/19 03:11:52;;;;;;;;;;;;;;;19.52;80.50;99964.17;1673244;84;21163;-69
2022/08/19 03:14:19;;;;;;;7.83;4.60;;;;;;;19.55;80.18;99965.02;1657040;84;20165;-70
2022/08/19 03:16:50;;;;;;;8.58;3.98;;;;;;;19.50;80.37;99962.80;1666081;85;21024;-68
2022/08/19 03:19:20;;;;;;;3.85;3.52;;;;;;;19.49;80.49;99970.08;1657453;84;21052;-69
2022/08/19 03:21:47;;;;;;;7.85;4.60;;;;;;;19.53;80.49;99975.78;1650655;84;21524;-70
2022/08/19 03:24:14;;;;;;;4.30;3.90;;;;;;;19.63;80.17;99974.00;1667030;83;21112;-68
2022/08/19 03:26:45;;;;;;;7.15;3.65;;;;;;;19.80;79.42;99977.15;1669526;85;21013;-69
2022/08/19 03:29:12;;;;;;;3.87;3.52;;;;;;;19.96;79.09;99975.36;1670008;84;21650;-70
2022/08/19 03:31:41;;;;;;;14.25;4.35;;;;;;;20.17;78.46;99979.02;1657520;84;21069;-72
2022/08/19 03:34:07;;;;;;;8.88;4.20;;;;;;;20.38;77.96;99975.38;1684573;82;21711;-70
2022/08/19 03:36:34;;;;;;;6.10;4.12;;;;;;;20.61;76.91;99986.90;1743739;80;21090;-69
2022/08/19 03:39:01;;;;;;;;;;;;;;;20.78;75.92;99979.93;1746309;80;21503;-69
2022/08/19 03:41:31;;;;;;;7.30;4.17;;;;;;;20.97;75.31;99987.84;1748485;81;20140;-68
2022/08/19 03:43:58;;;;;;;6.80;3.65;;;;;;;21.11;74.02;99993.57;1740807;81;21129;-69
2022/08/19 03:46:32;;;;;;;7.87;4.17;;;;;;;21.29;73.65;99995.53;1687903;82;21139;-67
2022/08/19 03:49:00;;;;;;;5.90;4.17;;;;;;;21.52;71.96;99996.41;1676421;84;21031;-68
2022/08/19 03:51:31;;;;;;;3.98;3.60;;;;;;;21.67;71.34;100005.09;1685806;83;21074;-69
2022/08/19 03:54:00;;;;;;;7.30;3.90;;;;;;;21.84;70.51;100000.77;1678356;83;21656;-69
2022/08/19 03:56:28;;;;;;;7.20;4.33;;;;;;;22.01;69.37;100001.84;1645698;84;21034;-69
2022/08/19 03:59:07;;;;;;;5.00;4.25;;;;;;;22.11;69.12;100008.64;1623964;86;21126;-69
2022/08/19 04:01:35;;;;;;;4.08;3.72;;;;;;;22.29;68.26;100006.47;1622664;86;21188;-68
2022/08/19 04:04:02;;;;;;;7.33;4.12;;;;;;;22.50;67.62;100009.95;1657209;83;21089;-69
2022/08/19 04:06:33;;;;;;;5.65;4.65;;;;;;;22.72;66.56;100006.34;1658567;84;21069;-70
2022/08/19 04:09:03;;;;;;;6.35;3.95;;;;;;;22.95;65.84;100002.72;1637566;86;21111;-67
2022/08/19 04:11:41;;;;;;;5.72;3.42;;;;;;;23.23;64.24;99999.89;1635088;86;21034;-67
2022/08/19 04:14:11;;;;;;;12.82;4.33;;;;;;;23.44;63.64;100006.01;1663672;85;21075;-67
2022/08/19 04:16:37;;;;;;;4.92;3.17;;;;;;;23.70;62.01;100004.48;1674533;85;21580;-69
2022/08/19 04:19:05;;;;;;;4.65;3.58;;;;;;;23.88;60.95;100005.70;1673503;85;21051;-69
2022/08/19 04:21:33;;;;;;;8.43;3.62;;;;;;;24.13;60.39;100007.41;1664459;82;21142;-68
2022/08/19 04:24:00;;;;;;;4.97;3.00;;;;;;;24.23;58.71;100010.02;1644484;85;21121;-67
2022/08/19 04:26:34;;;;;;;6.72;2.77;;;;;;;24.35;58.77;100005.54;1649190;85;21117;-68
2022/08/19 04:29:05;;;;;;;4.17;3.27;;;;;;;24.62;57.43;100006.38;1678183;82;21700;-67
2022/08/19 04:31:35;;;;;;;5.47;2.95;;;;;;;24.74;56.17;100010.05;1696278;82;20976;-68
2022/08/19 04:34:05;;;;;;;4.42;2.87;;;;;;;24.73;56.45;100002.96;1692016;82;21085;-67
2022/08/19 04:36:35;;;;;;;9.28;3.27;;;;;;;24.89;56.25;100007.69;1648679;86;21071;-68
2022/08/19 04:39:06;;;;;;;7.90;3.05;;;;;;;25.17;55.08;100014.70;1640992;86;21020;-68
2022/08/19 04:44:18;;;;;;;3.37;2.65;;;;;;;25.46;53.61;100013.21;1635904;84;21665;-68
2022/08/19 04:46:47;;;;;;;5.60;2.35;;;;;;;25.22;54.19;100023.63;1639989;87;21081;-69
2022/08/19 04:49:16;;;;;;;9.38;3.67;;;;;;;25.19;54.41;100021.47;1624360;87;21097;-68
2022/08/19 04:51:45;;;;;;;5.25;2.75;;;;;;;25.15;54.25;100025.09;1679408;82;21066;-69
2022/08/19 04:54:12;;;;;;;4.12;2.40;;;;;;;25.14;54.61;100018.00;1705774;82;21467;-68
2022/08/19 04:56:40;;;;;;;4.35;2.20;;;;;;;25.19;54.66;100013.30;1675091;82;21030;-68
2022/08/19 04:59:08;;;;;;;9.35;3.00;;;;;;;25.34;54.17;100015.59;1680625;81;21110;-69
2022/08/19 05:01:36;;;;;;;2.90;2.42;;;;;;;25.48;53.91;100015.64;1684707;83;20992;-67
2022/08/19 05:04:06;;;;;;;8.20;2.33;;;;;;;25.59;53.99;100015.19;1689500;83;22206;-68
2022/08/19 05:06:35;;;;;;;6.60;2.92;;;;;;;25.85;52.69;100024.34;1736312;79;21141;-68
2022/08/19 05:09:05;;;;;;;5.30;2.67;;;;;;;26.05;51.93;100017.77;1752992;80;21486;-67
2022/08/19 05:11:38;;;;;;;4.42;2.90;;;;;;;26.14;51.72;100017.31;1742915;80;21008;-68
2022/08/19 05:14:06;;;;;;;3.95;2.17;;;;;;;26.21;51.33;100020.47;1722673;81;21062;-68
2022/08/19 05:16:34;;;;;;;8.50;2.25;;;;;;;26.19;50.97;100017.80;1711920;82;21013;-68
2022/08/19 05:24:35;;;;;;;8.78;2.80;;;;;;;26.18;50.99;100022.45;1684753;81;21589;-70
2022/08/19 05:27:04;;;;;;;5.87;3.55;;;;;;;26.01;51.27;100027.66;1714453;81;21518;-68
2022/08/19 05:29:34;;;;;;;4.62;2.12;;;;;;;25.85;51.80;100028.44;1708516;81;21046;-68
2022/08/19 05:32:03;;;;;;;5.90;2.92;;;;;;;25.75;51.97;100034.05;1710056;81;21465;-68
2022/08/19 05:34:30;;;;;;;4.85;1.90;;;;;;;25.65;52.41;100032.30;1719871;81;21473;-72
2022/08/19 05:36:59;;;;;;;8.98;2.42;;;;;;;25.53;52.91;100034.12;1714241;83;21002;-69
2022/08/19 05:39:29;;;;;;;8.68;2.90;;;;;;;25.57;53.14;100031.61;1721399;80;21644;-71
2022/08/19 05:41:59;;;;;;;2.92;2.60;;;;;;;25.59;52.73;100037.02;1722261;81;21035;-69
2022/08/19 05:44:32;;;;;;;8.43;2.95;;;;;;;25.60;52.96;100039.22;1709555;82;21803;-68
2022/08/19 05:47:04;;;;;;;5.45;2.40;;;;;;;25.66;53.06;100039.95;1667753;82;21181;-68
2022/08/19 05:49:33;;;;;;;2.92;2.40;;;;;;;25.77;52.81;100038.13;1668212;86;21038;-70
2022/08/19 05:52:04;;;;;;;6.30;2.50;;;;;;;25.93;51.85;100031.08;1653313;84;21498;-69
2022/08/19 05:54:30;;;;;;;4.80;3.62;;;;;;;25.92;52.00;100031.64;1679467;84;21205;-68
2022/08/19 05:56:57;;;;;;;3.22;2.30;;;;;;;25.88;52.03;100031.95;1665396;83;21154;-73
2022/08/19 05:59:23;;;;;;;9.38;3.10;;;;;;;25.73;52.03;100026.72;1661726;84;21033;-69
2022/08/19 06:01:54;;;;;;;7.53;3.17;;;;;;;25.55;52.88;100025.64;1728486;79;21010;-69
2022/08/19 06:04:21;;;;;;;3.35;2.60;;;;;;;25.54;53.06;100035.75;1767017;80;20993;-68
2022/08/19 06:06:51;;;;;;;3.77;2.75;;;;;;;25.54;53.10;100027.56;1758492;80;21001;-68
2022/08/19 06:09:19;;;;;;;6.55;2.58;;;;;;;25.64;53.26;100029.33;1683208;81;21637;-69
2022/08/19 06:11:53;;;;;;;6.40;2.85;;;;;;;25.74;52.30;100040.07;1637766;85;20971;-69
2022/08/19 06:14:23;;;;;;;4.33;2.12;;;;;;;25.64;52.04;100041.61;1652216;86;21593;-72
2022/08/19 06:16:52;;;;;;;5.08;2.00;;;;;;;25.58;52.27;100042.77;1671780;84;21018;-69
2022/08/19 06:19:22;;;;;;;5.28;3.05;;;;;;;25.68;52.36;100037.73;1661923;84;21108;-69
2022/08/19 06:21:50;;;;;;;3.62;2.33;;;;;;;26.02;51.76;100036.11;1661990;83;21498;-70
2022/08/19 06:24:23;;;;;;;8.35;2.55;;;;;;;26.07;51.06;100041.50;1656142;83;21541;-69
2022/08/19 06:26:50;;;;;;;7.22;2.12;;;;;;;25.86;52.11;100025.16;1660969;83;21092;-69
2022/08/19 06:29:18;;;;;;;3.15;2.35;;;;;;;25.86;51.79;100025.95;1658798;83;21493;-73
2022/08/19 06:31:51;;;;;;;5.40;2.27;;;;;;;25.82;51.79;100027.66;1663193;83;21021;-71
2022/08/19 06:34:19;;;;;;;5.72;2.30;;;;;;;25.75;52.23;100026.69;1679781;83;21088;-68
2022/08/19 06:36:49;;;;;;;3.10;2.62;;;;;;;25.63;53.00;100022.23;1638332;84;20998;-70
2022/08/19 06:39:20;;;;;;;7.92;2.70;;;;;;;25.78;52.36;100020.63;1697677;82;20974;-70
2022/08/19 06:41:50;;;;;;;6.60;2.85;;;;;;;25.97;51.66;100029.36;1722528;80;21078;-70
2022/08/19 06:44:19;;;;;;;5.05;2.37;;;;;;;26.12;51.56;100030.46;1702735;82;20959;-71
2022/08/19 06:46:46;;;;;;;4.15;2.35;;;;;;;26.29;50.67;100027.72;1718651;81;21100;-69
2022/08/19 06:49:13;;;;;;;7.58;2.58;;;;;;;26.11;50.82;100030.22;1730274;81;20990;-70
2022/08/19 06:51:43;;;;;;;8.30;3.12;;;;;;;25.94;51.71;100029.98;1731842;81;21528;-70
2022/08/19 06:54:10;;;;;;;5.72;2.05;;;;;;;25.92;51.69;100028.08;1714640;81;21137;-71
2022/08/19 06:56:37;;;;;;;7.58;3.02;;;;;;;25.84;52.15;100028.17;1695008;81;21065;-71
2022/08/19 06:59:10;;;;;;;2.25;2.08;;;;;;;25.85;51.96;100028.44;1628389;87;21026;-71
2022/08/19 07:01:40;;;;;;;5.50;2.80;;;;;;;25.87;52.17;100026.78;1666479;84;21524;-68
2022/08/19 07:04:09;;;;;;;10.05;2.70;;;;;;;26.03;51.88;100025.43;1664757;84;21034;-73
2022/08/19 07:06:36;;;;;;;3.42;2.15;;;;;;;26.16;50.84;100030.67;1748482;80;21116;-68
2022/08/19 07:09:06;;;;;;;10.38;3.10;;;;;;;26.12;51.09;100035.12;1760157;80;21054;-69
2022/08/19 07:11:32;;;;;;;6.42;2.25;;;;;;;26.15;51.34;100028.52;1750225;80;21049;-72
2022/08/19 07:14:01;;;;;;;8.73;3.17;;;;;;;26.16;51.13;100032.05;1721326;81;21042;-76
2022/08/19 07:16:28;;;;;;;12.03;2.27;;;;;;;26.05;51.44;100041.52;1722110;81;20986;-69
2022/08/19 07:18:56;;;;;;;8.10;2.85;;;;;;;25.93;52.29;100042.00;1734640;81;21545;-70
2022/08/19 07:21:28;;;;;;;6.78;3.37;;;;;;;25.68;52.83;100037.17;1718599;81;21005;-70
2022/08/19 07:23:56;;;;;;;12.37;2.83;;;;;;;25.47;53.06;100036.67;1746014;81;21112;-70
2022/08/19 07:26:30;;;;;;;6.33;2.50;;;;;;;25.20;53.78;100038.64;1743102;81;20940;-71
2022/08/19 07:29:01;;;;;;;5.12;2.00;;;;;;;24.97;54.19;100039.75;1732930;81;21032;-71
2022/08/19 07:31:28;;;;;;;9.78;2.83;;;;;;;24.79;54.87;100028.23;1677644;81;21162;-69
2022/08/19 07:33:56;;;;;;;6.17;3.15;;;;;;;24.77;54.91;100026.36;1607300;87;21490;-70
2022/08/19 07:36:31;;;;;;;5.95;2.45;;;;;;;24.77;55.15;100025.83;1633631;86;21015;-70
2022/08/19 07:39:01;;;;;;;7.27;2.23;;;;;;;24.84;55.59;100030.36;1637744;85;21141;-74
2022/08/19 07:41:31;;;;;;;7.28;2.67;;;;;;;24.92;55.24;100028.92;1653381;85;21023;-68
2022/08/19 07:44:03;;;;;;;9.30;3.00;;;;;;;24.95;54.96;100030.25;1646503;84;21605;-70
2022/08/19 07:46:28;;;;;;;12.13;4.90;;;;;;;24.98;55.11;100028.31;1631173;86;21022;-69
2022/08/19 07:48:54;;;;;;;5.28;2.75;;;;;;;24.96;55.36;100027.23;1628868;86;21026;-71
2022/08/19 07:51:21;;;;;;;10.25;2.92;;;;;;;24.91;55.44;100040.92;1651149;84;21027;-70
2022/08/19 07:53:50;;;;;;;6.62;2.30;;;;;;;24.87;55.51;100050.79;1640542;86;21018;-68
2022/08/19 07:56:18;;;;;;;11.20;3.52;;;;;;;24.75;56.54;100057.19;1676884;83;21019;-70
2022/08/19 07:58:47;;;;;;;10.45;3.10;;;;;;;24.72;56.42;100049.05;1698530;82;21024;-68
2022/08/19 08:01:22;;;;;;;5.28;2.92;;;;;;;24.70;56.86;100046.36;1661051;82;21001;-72
2022/08/19 08:09:28;;;;;;;8.50;3.90;;;;;;;24.66;57.51;100048.85;1637485;85;21599;-71
2022/08/19 08:12:03;;;;;;;16.15;4.05;;;;;;;24.73;56.50;100050.66;1629513;85;21085;-72
2022/08/19 08:14:35;;;;;;;6.80;2.87;;;;;;;24.76;55.98;100046.00;1634175;83;21218;-69
2022/08/19 08:17:04;;;;;;;4.80;3.05;;;;;;;24.75;56.85;100043.55;1596532;88;21073;-70
2022/08/19 08:19:30;;;;;;;3.30;2.77;;;;;;;24.82;57.57;100038.58;1591936;89;21037;-69
2022/08/19 08:22:01;;;;;;;9.23;3.35;;;;;;;24.84;57.24;100038.53;1658579;85;21090;-70
2022/08/19 08:24:31;;;;;;;4.65;3.08;;;;;;;24.79;57.37;100037.78;1708424;83;21058;-71
2022/08/19 08:27:00;;;;;;;7.97;3.37;;;;;;;24.74;58.09;100041.39;1687202;83;20990;-68
2022/08/19 08:29:29;;;;;;;9.53;3.70;;;;;;;24.84;57.68;100043.98;1744291;81;21062;-70
2022/08/19 08:31:55;;;;;;;7.22;2.80;;;;;;;24.95;57.29;100050.14;1736561;81;21022;-69
2022/08/19 08:34:22;;;;;;;6.12;3.25;;;;;;;25.04;57.06;100054.41;1726349;81;21026;-70
2022/08/19 08:36:50;;;;;;;4.87;2.50;;;;;;;25.11;56.93;100052.66;1691095;83;21643;-70
2022/08/19 08:39:20;;;;;;;8.70;3.95;;;;;;;25.07;57.06;100063.34;1703717;83;21119;-69
2022/08/19 08:42:11;;;;;;;8.90;3.55;;;;;;;25.00;57.36;100058.82;1705605;83;21525;-70
2022/08/19 08:45:02;;;;;;;5.72;3.60;;;;;;;24.94;57.54;100065.41;1703453;82;21493;31
2022/08/19 08:47:34;;;;;;;7.50;3.22;;;;;;;24.97;57.57;100061.56;1675783;84;21108;-70
2022/08/19 08:50:20;;;;;;;7.35;2.83;;;;;;;25.03;57.53;100059.05;1765003;79;22242;-71
2022/08/19 08:52:52;;;;;;;7.90;2.58;;;;;;;25.34;56.49;100058.67;1781053;79;20972;-69
2022/08/19 08:55:23;;;;;;;10.00;3.42;;;;;;;25.34;56.49;100058.67;1755801;79;21107;-69
2022/08/19 08:58:01;;;;;;;5.10;3.17;;;;;;;25.48;56.18;100052.48;1679751;84;21034;-69
2022/08/19 09:00:33;;;;;;;7.28;3.47;;;;;;;25.55;56.09;100058.39;1671640;83;21040;-70
2022/08/19 09:03:01;;;;;;;13.50;3.42;;;;;;;25.60;55.64;100048.20;1728324;81;21042;-69
2022/08/19 09:05:43;;;;;;;4.25;3.02;;;;;;;25.65;55.23;100045.94;1728952;81;21179;-70
2022/08/19 09:08:41;;;;;;;9.20;3.70;;;;;;;25.63;55.40;100056.34;1746827;79;21595;-70
2022/08/19 09:11:12;;;;;;;9.43;3.37;;;;;;;25.60;55.32;100053.67;1781809;78;21176;-70
2022/08/19 09:13:53;;;;;;;10.00;3.30;;;;;;;25.55;55.50;100061.92;1784608;79;21472;-71
2022/08/19 09:16:26;;;;;;;5.80;3.47;;;;;;;25.54;55.75;100047.20;1745586;79;21094;-70
2022/08/19 09:18:54;;;;;;;6.25;2.70;;;;;;;25.50;55.75;100047.54;1723900;81;21051;-70
2022/08/19 09:21:22;;;;;;;5.20;2.80;;;;;;;25.41;56.05;100072.77;1723682;82;21117;-70
2022/08/19 09:23:49;;;;;;;5.50;3.22;;;;;;;25.35;56.40;100044.47;1726698;78;21081;-70
2022/08/19 09:26:20;;;;;;;6.17;3.47;;;;;;;25.39;56.74;100055.05;1708515;82;21026;-70
2022/08/19 09:28:50;;;;;;;13.25;3.52;;;;;;;25.49;56.86;100056.84;1723325;82;21038;-70
2022/08/19 09:31:21;;;;;;;6.28;3.22;;;;;;;25.55;56.42;100061.92;1730662;79;21109;-70
2022/08/19 09:33:49;;;;;;;9.35;3.72;;;;;;;25.61;56.43;100059.36;1712578;81;21608;-71
2022/08/19 09:36:18;;;;;;;6.92;2.90;;;;;;;25.56;56.28;100058.63;1703910;83;21109;-68
2022/08/19 09:38:45;;;;;;;4.37;2.52;;;;;;;25.50;56.73;100070.73;1697408;81;21062;-69
2022/08/19 09:41:16;;;;;;;8.05;2.67;;;;;;;25.52;56.95;100070.69;1679269;83;21016;-69
2022/08/19 09:43:46;;;;;;;4.12;3.15;;;;;;;25.49;57.21;100077.31;1679381;83;21073;-70
2022/08/19 09:46:13;;;;;;;6.20;3.37;;;;;;;25.44;57.09;100085.00;1726752;82;21109;-69
2022/08/19 09:48:41;;;;;;;5.65;3.58;;;;;;;25.45;57.27;100098.91;1719417;82;21097;-69
2022/08/19 09:51:17;;;;;;;5.65;2.90;;;;;;;25.35;57.36;100083.47;1710025;82;21128;-69
2022/08/19 09:53:45;;;;;;;3.80;3.33;;;;;;;25.25;57.65;100119.88;1753842;80;21076;-70
2022/08/19 09:56:13;;;;;;;12.20;3.90;;;;;;;25.18;57.75;100109.03;1763967;79;21434;-68
2022/08/19 09:58:40;;;;;;;8.85;3.35;;;;;;;25.08;58.32;100091.44;1745321;80;21018;-71
2022/08/19 10:01:08;;;;;;;7.25;3.42;;;;;;;25.05;58.76;100092.29;1732496;79;21079;-72
2022/08/19 10:03:36;;;;;;;6.33;3.15;;;;;;;25.11;58.96;100083.50;1723309;81;20997;-72
2022/08/19 10:06:05;;;;;;;5.87;3.02;;;;;;;25.22;59.32;100093.70;1724720;81;22233;-70
2022/08/19 10:08:35;;;;;;;6.42;3.98;;;;;;;25.33;58.50;100099.88;1736366;81;21275;-70
2022/08/19 10:11:03;;;;;;;5.90;3.40;;;;;;;25.29;58.86;100097.48;1734065;81;21009;-70
2022/08/19 10:13:34;;;;;;;6.08;3.55;;;;;;;25.19;58.95;100090.22;1745555;81;21095;-69
2022/08/19 10:16:08;;;;;;;6.45;3.58;;;;;;;25.08;59.61;100095.53;1737043;81;21487;-70
2022/08/19 10:18:36;;;;;;;4.80;3.30;;;;;;;25.05;59.87;100090.09;1737175;81;21570;-72
2022/08/19 10:21:08;;;;;;;8.98;3.52;;;;;;;25.04;59.96;100092.58;1731774;81;21167;-73
2022/08/19 10:23:37;;;;;;;6.58;3.33;;;;;;;25.03;59.97;100098.59;1727768;81;21102;-72
2022/08/19 10:26:06;;;;;;;6.42;3.58;;;;;;;25.04;59.98;100104.84;1746503;79;21146;-71
2022/08/19 10:28:37;;;;;;;8.10;3.83;;;;;;;25.05;59.86;100097.74;1770325;79;21056;-69
2022/08/19 10:31:07;;;;;;;5.65;3.40;;;;;;;25.09;59.82;100104.80;1764802;79;21103;-74
2022/08/19 10:33:35;;;;;;;8.50;3.70;;;;;;;25.12;59.79;100112.93;1775881;78;20975;-76
2022/08/19 10:36:07;;;;;;;8.45;4.12;;;;;;;25.15;59.68;100107.71;1807873;78;21057;-72
2022/08/19 10:38:34;;;;;;;6.05;3.00;;;;;;;25.22;59.26;100112.80;1761208;78;21068;-71
2022/08/19 10:41:14;;;;;;;7.17;3.42;;;;;;;25.29;59.15;100113.28;1752922;80;21004;-71
2022/08/19 10:43:41;;;;;;;7.00;2.95;;;;;;;25.39;59.11;100104.98;1740183;80;21057;-70
2022/08/19 10:46:12;;;;;;;18.60;3.87;;;;;;;25.45;58.36;100118.81;1722025;81;21067;-70
2022/08/19 10:48:41;;;;;;;7.75;2.70;;;;;;;25.41;57.60;100108.23;1714158;82;21043;-69
2022/08/19 10:53:55;;;;;;;6.17;2.87;;;;;;;25.32;57.17;100129.08;1709313;82;21437;-71
2022/08/19 10:59:09;;;;;;;13.83;2.80;;;;;;;25.27;56.98;100120.15;1753413;76;21178;-74
2022/08/19 11:01:36;;;;;;;6.25;2.77;;;;;;;25.28;56.88;100126.69;1781954;78;20993;-71
2022/08/19 11:04:09;;;;;;;5.90;2.80;;;;;;;25.30;56.09;100120.38;1795052;78;21473;-70
2022/08/19 11:06:38;;;;;;;8.95;2.85;;;;;;;25.30;56.20;100122.27;1761631;78;21038;-69
2022/08/19 11:09:05;;;;;;;7.08;2.62;;;;;;;25.29;56.58;100126.92;1737705;81;20991;-69
2022/08/19 11:11:32;;;;;;;3.75;2.50;;;;;;;25.33;56.62;100135.34;1745905;80;21003;-70
2022/08/19 11:13:58;;;;;;;8.70;2.72;;;;;;;25.37;56.67;100124.94;1708314;80;21079;-70
2022/08/19 11:16:29;;;;;;;8.05;3.12;;;;;;;25.43;56.73;100122.39;1700001;82;20979;-70
2022/08/19 11:18:58;;;;;;;6.65;2.83;;;;;;;25.49;55.96;100153.15;1723414;82;20971;-72
2022/08/19 11:21:31;;;;;;;4.47;2.25;;;;;;;25.48;55.97;100125.59;1708867;84;21084;-70
2022/08/19 11:24:02;;;;;;;10.03;3.05;;;;;;;25.51;55.44;100131.84;1716921;79;21002;-70
2022/08/19 11:26:30;;;;;;;3.27;1.65;;;;;;;25.52;55.13;100134.00;1715816;82;21546;-70
2022/08/19 11:28:59;;;;;;;4.50;2.17;;;;;;;25.45;55.56;100136.55;1729119;82;21446;-72
2022/08/19 11:31:35;;;;;;;5.70;1.80;;;;;;;25.42;55.79;100142.58;1673115;84;21136;-69
2022/08/19 11:34:05;;;;;;;5.85;1.85;;;;;;;25.42;55.57;100142.58;1738911;81;21058;-72
2022/08/19 11:36:33;;;;;;;5.03;2.30;;;;;;;25.42;55.56;100140.41;1730796;81;21600;-71
2022/08/19 11:39:00;;;;;;;6.80;2.15;;;;;;;25.43;55.72;100132.50;1721772;82;20979;-69
2022/08/19 11:41:28;;;;;;;8.03;3.08;;;;;;;25.40;56.02;100128.98;1715841;82;21140;-69
2022/08/19 11:43:54;;;;;;;5.80;2.30;;;;;;;25.36;56.33;100154.67;1746527;79;21599;-72
2022/08/19 11:46:23;;;;;;;6.40;2.60;;;;;;;25.32;56.49;100130.45;1767580;80;20969;-72
2022/08/19 11:48:50;;;;;;;6.97;2.20;;;;;;;25.30;56.49;100131.29;1758969;79;21112;-71
2022/08/19 11:51:21;;;;;;;6.40;2.40;;;;;;;25.32;56.48;100125.55;1748248;80;21091;-71
2022/08/19 11:53:50;;;;;;;3.72;2.15;;;;;;;25.37;55.26;100127.66;1753826;81;21067;-69
2022/08/19 11:56:17;;;;;;;3.05;2.50;;;;;;;25.38;54.71;100142.11;1729260;80;21332;-69
2022/08/19 11:58:43;;;;;;;5.55;2.50;;;;;;;25.34;54.71;100131.52;1724771;83;21098;-71
2022/08/19 12:01:15;;;;;;;3.20;1.80;;;;;;;25.30;54.65;100133.19;1731839;82;21104;-70
2022/08/19 12:03:44;;;;;;;4.97;2.08;;;;;;;25.26;55.00;100143.89;1713330;81;21152;-70